Time,TemperatureF,DewpointF,PressureIn,WindDirection,WindDirectionDegrees,WindSpeedMPH,WindSpeedGustMPH,Humidity,HourlyPrecipIn,Conditions,Clouds,dailyrainin,SoftwareType,DateUTC
2013-09-12 00:05:00,63.7,54.9,29.71,WNW,292,1.3,2.7,73,0.00,,---,0.00,VWS V14.00,2013-09-12 07:05:00,
2013-09-12 00:10:00,63.5,54.7,29.71,WNW,292,0.0,0.9,73,0.00,,---,0.00,VWS V14.00,2013-09-12 07:10:00,
2013-09-12 00:15:00,63.5,54.7,29.71,SSW,202,1.1,1.1,73,0.00,,---,0.00,VWS V14.00,2013-09-12 07:15:00,
2013-09-12 00:21:00,63.5,54.7,29.71,WSW,248,0.0,0.0,73,0.00,,---,0.00,VWS V14.00,2013-09-12 07:21:00,
2013-09-12 00:26:00,63.5,54.7,29.71,NNW,338,1.6,2.0,73,0.00,,---,0.00,VWS V14.00,2013-09-12 07:26:00,
2013-09-12 00:31:00,63.1,54.3,29.71,WNW,292,0.0,1.3,73,0.00,,---,0.00,VWS V14.00,2013-09-12 07:31:00,
2013-09-12 00:36:00,63.1,54.3,29.68,NW,315,2.0,2.5,73,0.00,,---,0.00,VWS V14.00,2013-09-12 07:36:00,
2013-09-12 00:41:00,63.1,54.3,29.68,NW,315,2.5,2.5,73,0.00,,---,0.00,VWS V14.00,2013-09-12 07:41:00,
2013-09-12 00:47:00,63.1,54.3,29.68,NW,315,3.4,3.4,73,0.00,,---,0.00,VWS V14.00,2013-09-12 07:47:00,
2013-09-12 00:52:00,62.8,54.4,29.71,NW,315,1.1,1.1,74,0.00,,---,0.00,VWS V14.00,2013-09-12 07:52:00,
2013-09-12 00:57:00,62.6,54.2,29.71,NW,315,2.0,2.0,74,0.00,,---,0.00,VWS V14.00,2013-09-12 07:57:00,
2013-09-12 01:02:00,62.6,54.2,29.71,WNW,292,2.5,2.9,74,0.00,,---,0.00,VWS V14.00,2013-09-12 08:02:00,
2013-09-12 01:07:00,62.6,54.6,29.71,NW,315,2.9,2.9,75,0.00,,---,0.00,VWS V14.00,2013-09-12 08:07:00,
2013-09-12 01:13:00,62.6,54.6,29.71,NNW,338,3.1,3.4,75,0.00,,---,0.00,VWS V14.00,2013-09-12 08:13:00,
2013-09-12 01:18:00,62.4,54.4,29.71,NW,315,3.4,3.4,75,0.00,,---,0.00,VWS V14.00,2013-09-12 08:18:00,
2013-09-12 01:23:00,62.4,54.4,29.71,West,270,1.6,1.6,75,0.00,,---,0.00,VWS V14.00,2013-09-12 08:23:00,
2013-09-12 01:29:00,62.4,54.8,29.71,NNW,338,1.6,2.5,76,0.00,,---,0.00,VWS V14.00,2013-09-12 08:29:00,
2013-09-12 01:34:00,62.4,54.8,29.71,NNW,338,2.7,2.7,76,0.00,,---,0.00,VWS V14.00,2013-09-12 08:34:00,
2013-09-12 01:39:00,62.6,54.9,29.71,NW,315,1.6,1.6,76,0.00,,---,0.00,VWS V14.00,2013-09-12 08:39:00,
2013-09-12 01:44:00,62.4,55.1,29.71,NNW,338,0.0,0.9,77,0.00,,---,0.00,VWS V14.00,2013-09-12 08:44:00,
2013-09-12 01:49:00,62.4,55.1,29.71,NNW,338,0.0,0.0,77,0.00,,---,0.00,VWS V14.00,2013-09-12 08:49:00,
2013-09-12 01:55:00,62.6,55.3,29.71,NNW,338,0.9,0.9,77,0.00,,---,0.00,VWS V14.00,2013-09-12 08:55:00,
2013-09-12 02:00:00,62.6,55.3,29.71,NNW,338,0.0,0.0,77,0.00,,---,0.00,VWS V14.00,2013-09-12 09:00:00,
2013-09-12 02:05:00,62.6,55.3,29.71,ESE,112,0.0,1.1,77,0.00,,---,0.00,VWS V14.00,2013-09-12 09:05:00,
2013-09-12 02:10:00,63.0,55.7,29.71,ESE,112,0.0,0.0,77,0.00,,---,0.00,VWS V14.00,2013-09-12 09:10:00,
2013-09-12 02:15:00,63.0,55.7,29.71,WNW,292,1.3,1.3,77,0.00,,---,0.00,VWS V14.00,2013-09-12 09:15:00,
2013-09-12 02:21:00,63.0,55.7,29.71,WNW,292,0.9,0.9,77,0.00,,---,0.00,VWS V14.00,2013-09-12 09:21:00,
2013-09-12 02:26:00,63.0,55.7,29.71,NNW,338,0.0,0.0,77,0.00,,---,0.00,VWS V14.00,2013-09-12 09:26:00,
2013-09-12 02:31:00,63.0,55.7,29.71,WNW,292,0.0,0.0,77,0.00,,---,0.00,VWS V14.00,2013-09-12 09:31:00,
2013-09-12 02:37:00,63.0,55.7,29.68,NE,45,0.0,0.0,77,0.00,,---,0.00,VWS V14.00,2013-09-12 09:37:00,
2013-09-12 02:43:00,63.3,56.0,29.68,East,90,0.0,0.0,77,0.00,,---,0.00,VWS V14.00,2013-09-12 09:43:00,
2013-09-12 02:48:00,63.3,56.0,29.68,East,90,0.0,0.0,77,0.00,,---,0.00,VWS V14.00,2013-09-12 09:48:00,
2013-09-12 02:54:00,63.5,56.2,29.68,ESE,112,0.0,0.0,77,0.00,,---,0.00,VWS V14.00,2013-09-12 09:54:00,
2013-09-12 02:59:00,63.5,56.2,29.68,ESE,112,0.0,0.0,77,0.00,,---,0.00,VWS V14.00,2013-09-12 09:59:00,
2013-09-12 03:04:00,63.5,56.2,29.68,ESE,112,0.0,0.0,77,0.00,,---,0.00,VWS V14.00,2013-09-12 10:04:00,
2013-09-12 03:10:00,63.7,56.3,29.68,ESE,112,0.0,0.0,77,0.00,,---,0.00,VWS V14.00,2013-09-12 10:10:00,
2013-09-12 03:15:00,63.7,56.3,29.68,ENE,68,0.0,0.0,77,0.00,,---,0.00,VWS V14.00,2013-09-12 10:15:00,
2013-09-12 03:21:00,63.7,56.3,29.68,NW,315,0.0,0.0,77,0.00,,---,0.00,VWS V14.00,2013-09-12 10:21:00,
2013-09-12 03:26:00,63.7,56.3,29.68,WNW,292,0.0,0.0,77,0.00,,---,0.00,VWS V14.00,2013-09-12 10:26:00,
2013-09-12 03:31:00,63.7,56.3,29.68,NNW,338,2.0,2.0,77,0.00,,---,0.00,VWS V14.00,2013-09-12 10:31:00,
2013-09-12 03:36:00,63.7,56.3,29.68,NW,315,0.0,0.0,77,0.00,,---,0.00,VWS V14.00,2013-09-12 10:36:00,
2013-09-12 03:41:00,63.7,56.7,29.68,NW,315,1.1,1.1,78,0.00,,---,0.00,VWS V14.00,2013-09-12 10:41:00,
2013-09-12 03:46:00,63.7,56.7,29.68,NW,315,1.3,1.3,78,0.00,,---,0.00,VWS V14.00,2013-09-12 10:46:00,
2013-09-12 03:52:00,63.7,56.7,29.68,NNE,22,1.1,3.1,78,0.00,,---,0.00,VWS V14.00,2013-09-12 10:52:00,
2013-09-12 03:57:00,63.7,56.7,29.68,NW,315,0.0,0.0,78,0.00,,---,0.00,VWS V14.00,2013-09-12 10:57:00,
2013-09-12 04:03:00,63.9,56.9,29.68,NW,315,0.0,0.0,78,0.00,,---,0.00,VWS V14.00,2013-09-12 11:03:00,
2013-09-12 04:08:00,63.9,56.9,29.68,NNW,338,0.0,0.0,78,0.00,,---,0.00,VWS V14.00,2013-09-12 11:08:00,
2013-09-12 04:13:00,63.9,56.9,29.68,NNW,338,0.0,0.0,78,0.00,,---,0.00,VWS V14.00,2013-09-12 11:13:00,
2013-09-12 04:18:00,63.9,56.9,29.68,NNW,338,0.0,0.0,78,0.00,,---,0.00,VWS V14.00,2013-09-12 11:18:00,
2013-09-12 04:23:00,63.9,56.9,29.68,NNW,338,0.0,0.0,78,0.00,,---,0.00,VWS V14.00,2013-09-12 11:23:00,
2013-09-12 04:28:00,63.9,57.2,29.68,NNE,22,0.0,0.0,79,0.00,,---,0.00,VWS V14.00,2013-09-12 11:28:00,
2013-09-12 04:34:00,63.9,56.9,29.68,NE,45,0.0,0.0,78,0.00,,---,0.00,VWS V14.00,2013-09-12 11:34:00,
2013-09-12 04:39:00,63.9,57.2,29.68,NE,45,0.0,0.0,79,0.00,,---,0.00,VWS V14.00,2013-09-12 11:39:00,
2013-09-12 04:44:00,63.9,57.2,29.68,NNW,338,1.6,1.6,79,0.00,,---,0.00,VWS V14.00,2013-09-12 11:44:00,
2013-09-12 04:49:00,63.9,57.2,29.68,NNW,338,0.0,0.0,79,0.00,,---,0.00,VWS V14.00,2013-09-12 11:49:00,
2013-09-12 04:55:00,63.7,56.7,29.68,NNW,338,0.0,0.0,78,0.00,,---,0.00,VWS V14.00,2013-09-12 11:55:00,
2013-09-12 05:00:00,63.7,56.7,29.68,NNW,338,0.0,0.0,78,0.00,,---,0.00,VWS V14.00,2013-09-12 12:00:00,
2013-09-12 05:05:00,63.7,56.7,29.68,NNW,338,0.0,0.0,78,0.00,,---,0.00,VWS V14.00,2013-09-12 12:05:00,
2013-09-12 05:11:00,63.7,56.7,29.68,NNW,338,0.0,0.0,78,0.00,,---,0.00,VWS V14.00,2013-09-12 12:11:00,
2013-09-12 05:16:00,63.5,56.9,29.68,NNW,338,0.0,0.0,79,0.00,,---,0.00,VWS V14.00,2013-09-12 12:16:00,
2013-09-12 05:21:00,63.5,56.9,29.68,NNW,338,0.0,0.0,79,0.00,,---,0.00,VWS V14.00,2013-09-12 12:21:00,
2013-09-12 05:27:00,63.5,56.9,29.68,NNW,338,0.0,0.0,79,0.00,,---,0.00,VWS V14.00,2013-09-12 12:27:00,
2013-09-12 05:32:00,63.5,56.9,29.68,NNW,338,0.0,0.0,79,0.00,,---,0.00,VWS V14.00,2013-09-12 12:32:00,
2013-09-12 05:37:00,63.5,56.9,29.68,NW,315,0.0,0.0,79,0.00,,---,0.00,VWS V14.00,2013-09-12 12:37:00,
2013-09-12 05:42:00,63.3,56.7,29.68,NW,315,0.0,0.0,79,0.00,,---,0.00,VWS V14.00,2013-09-12 12:42:00,
2013-09-12 05:47:00,63.3,56.7,29.68,WNW,292,0.0,0.0,79,0.00,,---,0.00,VWS V14.00,2013-09-12 12:47:00,
2013-09-12 05:53:00,63.5,56.9,29.68,SSW,202,0.0,0.0,79,0.00,,---,0.00,VWS V14.00,2013-09-12 12:53:00,
2013-09-12 05:58:00,63.5,56.9,29.68,SSE,158,2.7,2.7,79,0.00,,---,0.00,VWS V14.00,2013-09-12 12:58:00,
2013-09-12 06:03:00,63.7,57.0,29.68,SSE,158,2.7,2.7,79,0.00,,---,0.00,VWS V14.00,2013-09-12 13:03:00,
2013-09-12 06:08:00,63.7,57.0,29.68,SE,135,3.1,3.1,79,0.00,,---,0.00,VWS V14.00,2013-09-12 13:08:00,
2013-09-12 06:14:00,63.7,57.0,29.68,SSE,158,0.0,0.0,79,0.00,,---,0.00,VWS V14.00,2013-09-12 13:14:00,
2013-09-12 06:20:00,63.7,57.0,29.68,SSE,158,0.0,0.0,79,0.00,,---,0.00,VWS V14.00,2013-09-12 13:20:00,
2013-09-12 06:25:00,63.9,57.2,29.68,SSE,158,1.3,1.3,79,0.00,,---,0.00,VWS V14.00,2013-09-12 13:25:00,
2013-09-12 06:31:00,63.9,57.2,29.68,SSE,158,0.0,0.0,79,0.00,,---,0.00,VWS V14.00,2013-09-12 13:31:00,
2013-09-12 06:36:00,63.9,57.2,29.68,SSE,158,1.6,2.0,79,0.00,,---,0.00,VWS V14.00,2013-09-12 13:36:00,
2013-09-12 06:42:00,63.9,57.2,29.68,East,90,0.0,2.9,79,0.00,,---,0.00,VWS V14.00,2013-09-12 13:42:00,
2013-09-12 06:47:00,64.0,57.4,29.68,SSE,158,2.5,2.5,79,0.00,,---,0.00,VWS V14.00,2013-09-12 13:47:00,
2013-09-12 06:52:00,64.0,57.4,29.68,WSW,248,0.0,0.0,79,0.00,,---,0.00,VWS V14.00,2013-09-12 13:52:00,
2013-09-12 06:58:00,64.0,57.4,29.68,ESE,112,0.9,1.6,79,0.00,,---,0.00,VWS V14.00,2013-09-12 13:58:00,
2013-09-12 07:03:00,64.0,57.4,29.68,SSE,158,2.0,2.0,79,0.00,,---,0.00,VWS V14.00,2013-09-12 14:03:00,
2013-09-12 07:08:00,64.0,57.4,29.68,SSE,158,1.6,2.5,79,0.00,,---,0.00,VWS V14.00,2013-09-12 14:08:00,
2013-09-12 07:13:00,64.2,57.6,29.68,South,180,0.0,0.0,79,0.00,,---,0.00,VWS V14.00,2013-09-12 14:13:00,
2013-09-12 07:19:00,64.2,57.6,29.68,SSE,158,2.2,2.2,79,0.00,,---,0.00,VWS V14.00,2013-09-12 14:19:00,
2013-09-12 07:24:00,64.2,57.6,29.68,SSE,158,1.3,2.2,79,0.00,,---,0.00,VWS V14.00,2013-09-12 14:24:00,
2013-09-12 07:29:00,64.2,57.6,29.68,SSE,158,2.2,2.2,79,0.00,,---,0.00,VWS V14.00,2013-09-12 14:29:00,
2013-09-12 07:34:00,64.0,57.0,29.68,SE,135,0.0,0.0,78,0.00,,---,0.00,VWS V14.00,2013-09-12 14:34:00,
2013-09-12 07:39:00,64.0,57.0,29.68,SW,225,1.6,2.0,78,0.00,,---,0.00,VWS V14.00,2013-09-12 14:39:00,
2013-09-12 07:44:00,64.0,57.0,29.68,SW,225,1.6,1.6,78,0.00,,---,0.00,VWS V14.00,2013-09-12 14:44:00,
2013-09-12 07:50:00,64.2,57.2,29.68,SSW,202,2.9,2.9,78,0.00,,---,0.00,VWS V14.00,2013-09-12 14:50:00,
2013-09-12 07:55:00,64.0,57.0,29.68,WSW,248,0.0,2.9,78,0.00,,---,0.00,VWS V14.00,2013-09-12 14:55:00,
2013-09-12 08:00:00,64.0,57.0,29.68,South,180,2.0,2.0,78,0.00,,---,0.00,VWS V14.00,2013-09-12 15:00:00,
2013-09-12 08:05:00,64.2,57.2,29.71,South,180,2.0,2.0,78,0.00,,---,0.00,VWS V14.00,2013-09-12 15:05:00,
2013-09-12 08:11:00,64.2,57.2,29.71,South,180,1.3,1.3,78,0.00,,---,0.00,VWS V14.00,2013-09-12 15:11:00,
2013-09-12 08:16:00,64.2,57.2,29.71,SE,135,2.7,3.1,78,0.00,,---,0.00,VWS V14.00,2013-09-12 15:16:00,
2013-09-12 08:22:00,64.4,57.4,29.71,ESE,112,0.9,0.9,78,0.00,,---,0.00,VWS V14.00,2013-09-12 15:22:00,
2013-09-12 08:28:00,64.4,57.4,29.71,North,0,0.0,0.0,78,0.00,,---,0.00,VWS V14.00,2013-09-12 15:28:00,
2013-09-12 08:33:00,64.4,57.4,29.71,WSW,248,0.0,0.0,78,0.00,,---,0.00,VWS V14.00,2013-09-12 15:33:00,
2013-09-12 08:39:00,64.4,57.4,29.71,NW,315,1.1,1.1,78,0.00,,---,0.00,VWS V14.00,2013-09-12 15:39:00,
2013-09-12 08:44:00,64.4,57.4,29.71,NW,315,1.3,2.5,78,0.00,,---,0.00,VWS V14.00,2013-09-12 15:44:00,
2013-09-12 08:49:00,64.8,57.4,29.71,SSE,158,1.6,1.6,77,0.00,,---,0.00,VWS V14.00,2013-09-12 15:49:00,
2013-09-12 08:54:00,64.9,57.6,29.71,ESE,112,0.0,0.0,77,0.00,,---,0.00,VWS V14.00,2013-09-12 15:54:00,
2013-09-12 08:59:00,65.1,57.7,29.71,NNW,338,0.0,0.0,77,0.00,,---,0.00,VWS V14.00,2013-09-12 15:59:00,
2013-09-12 09:04:00,65.3,58.3,29.71,NNE,22,0.0,1.3,78,0.00,,---,0.00,VWS V14.00,2013-09-12 16:04:00,
2013-09-12 09:09:00,65.5,58.1,29.71,NNE,22,2.9,2.9,77,0.00,,---,0.00,VWS V14.00,2013-09-12 16:09:00,
2013-09-12 09:14:00,65.8,58.4,29.71,NW,315,2.9,2.9,77,0.00,,---,0.00,VWS V14.00,2013-09-12 16:14:00,
2013-09-12 09:19:00,65.8,58.4,29.71,NNE,22,1.6,2.0,77,0.00,,---,0.00,VWS V14.00,2013-09-12 16:19:00,
2013-09-12 09:25:00,66.0,58.6,29.71,ENE,68,1.1,1.1,77,0.00,,---,0.00,VWS V14.00,2013-09-12 16:25:00,
2013-09-12 09:30:00,66.2,58.4,29.71,North,0,0.0,0.0,76,0.00,,---,0.00,VWS V14.00,2013-09-12 16:30:00,
2013-09-12 09:36:00,66.2,58.4,29.71,NW,315,3.8,3.8,76,0.00,,---,0.00,VWS V14.00,2013-09-12 16:36:00,
2013-09-12 09:41:00,66.2,58.4,29.71,WNW,292,1.6,1.6,76,0.00,,---,0.00,VWS V14.00,2013-09-12 16:41:00,
2013-09-12 09:46:00,66.4,58.6,29.71,NNW,338,2.2,3.4,76,0.00,,---,0.00,VWS V14.00,2013-09-12 16:46:00,
2013-09-12 09:51:00,66.6,58.8,29.71,WNW,292,1.6,3.4,76,0.00,,---,0.00,VWS V14.00,2013-09-12 16:51:00,
2013-09-12 09:57:00,66.7,58.9,29.71,North,0,1.6,1.6,76,0.00,,---,0.00,VWS V14.00,2013-09-12 16:57:00,
2013-09-12 10:02:00,67.1,59.3,29.71,NE,45,0.0,0.0,76,0.00,,---,0.00,VWS V14.00,2013-09-12 17:02:00,
2013-09-12 10:07:00,67.5,59.6,29.71,NW,315,3.1,3.6,76,0.00,,---,0.00,VWS V14.00,2013-09-12 17:07:00,
2013-09-12 10:12:00,67.6,59.8,29.71,NW,315,0.9,0.9,76,0.00,,---,0.00,VWS V14.00,2013-09-12 17:12:00,
2013-09-12 10:18:00,68.2,60.3,29.71,NW,315,1.6,1.6,76,0.00,,---,0.00,VWS V14.00,2013-09-12 17:18:00,
2013-09-12 10:24:00,68.4,60.1,29.71,North,0,0.0,0.0,75,0.00,,---,0.00,VWS V14.00,2013-09-12 17:24:00,
2013-09-12 10:29:00,68.4,60.1,29.71,NNE,22,2.9,2.9,75,0.00,,---,0.00,VWS V14.00,2013-09-12 17:29:00,
2013-09-12 10:34:00,68.5,59.9,29.71,SE,135,2.2,2.2,74,0.00,,---,0.00,VWS V14.00,2013-09-12 17:34:00,
2013-09-12 10:40:00,68.7,60.1,29.71,WNW,292,2.5,3.6,74,0.00,,---,0.00,VWS V14.00,2013-09-12 17:40:00,
2013-09-12 10:45:00,69.1,60.5,29.71,NNE,22,1.3,1.3,74,0.00,,---,0.00,VWS V14.00,2013-09-12 17:45:00,
2013-09-12 10:50:00,69.3,60.6,29.71,North,0,1.1,1.3,74,0.00,,---,0.00,VWS V14.00,2013-09-12 17:50:00,
2013-09-12 10:55:00,69.6,60.6,29.71,NW,315,0.9,2.5,73,0.00,,---,0.00,VWS V14.00,2013-09-12 17:55:00,
2013-09-12 11:01:00,69.8,60.4,29.71,NNW,338,1.6,2.0,72,0.00,,---,0.00,VWS V14.00,2013-09-12 18:01:00,
2013-09-12 11:06:00,70.0,60.5,29.71,WNW,292,2.9,3.1,72,0.00,,---,0.00,VWS V14.00,2013-09-12 18:06:00,
2013-09-12 11:11:00,70.3,60.9,29.71,NE,45,0.9,1.1,72,0.00,,---,0.00,VWS V14.00,2013-09-12 18:11:00,
2013-09-12 11:17:00,70.9,61.4,29.71,WNW,292,2.9,3.6,72,0.00,,---,0.00,VWS V14.00,2013-09-12 18:17:00,
2013-09-12 11:22:00,71.4,61.9,29.71,WNW,292,1.6,2.7,72,0.00,,---,0.00,VWS V14.00,2013-09-12 18:22:00,
2013-09-12 11:27:00,71.4,61.9,29.71,NE,45,4.3,4.3,72,0.00,,---,0.00,VWS V14.00,2013-09-12 18:27:00,
2013-09-12 11:32:00,71.4,61.9,29.71,North,0,3.6,3.6,72,0.00,,---,0.00,VWS V14.00,2013-09-12 18:32:00,
2013-09-12 11:38:00,71.4,61.9,29.71,ENE,68,1.1,2.5,72,0.00,,---,0.00,VWS V14.00,2013-09-12 18:38:00,
2013-09-12 11:43:00,71.4,61.9,29.71,ENE,68,2.2,3.1,72,0.00,,---,0.00,VWS V14.00,2013-09-12 18:43:00,
2013-09-12 11:48:00,72.9,62.1,29.71,North,0,2.0,2.7,69,0.00,,---,0.00,VWS V14.00,2013-09-12 18:48:00,
2013-09-12 11:53:00,72.9,62.1,29.71,WNW,292,1.6,3.4,69,0.00,,---,0.00,VWS V14.00,2013-09-12 18:53:00,
2013-09-12 11:58:00,72.9,62.1,29.71,NNW,338,2.2,2.2,69,0.00,,---,0.00,VWS V14.00,2013-09-12 18:58:00,
2013-09-12 12:04:00,73.4,62.2,29.71,NNE,22,2.0,2.5,68,0.00,,---,0.00,VWS V14.00,2013-09-12 19:04:00,
2013-09-12 12:09:00,73.4,62.2,29.68,NNE,22,2.0,2.0,68,0.00,,---,0.00,VWS V14.00,2013-09-12 19:09:00,
2013-09-12 12:14:00,73.9,62.7,29.68,North,0,2.7,2.7,68,0.00,,---,0.00,VWS V14.00,2013-09-12 19:14:00,
2013-09-12 12:20:00,74.1,62.9,29.68,WNW,292,1.6,1.6,68,0.00,,---,0.00,VWS V14.00,2013-09-12 19:20:00,
2013-09-12 12:25:00,74.7,63.0,29.68,NW,315,1.3,2.9,67,0.00,,---,0.00,VWS V14.00,2013-09-12 19:25:00,
2013-09-12 12:30:00,75.2,63.5,29.68,West,270,2.0,2.0,67,0.00,,---,0.00,VWS V14.00,2013-09-12 19:30:00,
2013-09-12 12:36:00,75.4,63.2,29.68,West,270,4.3,4.3,66,0.00,,---,0.00,VWS V14.00,2013-09-12 19:36:00,
2013-09-12 12:41:00,75.4,63.2,29.68,North,0,2.7,4.7,66,0.00,,---,0.00,VWS V14.00,2013-09-12 19:41:00,
2013-09-12 12:46:00,76.1,63.9,29.68,North,0,1.6,1.6,66,0.00,,---,0.00,VWS V14.00,2013-09-12 19:46:00,
2013-09-12 12:51:00,76.3,63.7,29.68,NW,315,1.3,1.3,65,0.00,,---,0.00,VWS V14.00,2013-09-12 19:51:00,
2013-09-12 12:57:00,76.3,63.7,29.68,NW,315,3.4,3.4,65,0.00,,---,0.00,VWS V14.00,2013-09-12 19:57:00,
2013-09-12 13:02:00,76.3,63.7,29.68,NNW,338,2.5,2.5,65,0.00,,---,0.00,VWS V14.00,2013-09-12 20:02:00,
2013-09-12 13:07:00,76.3,63.7,29.68,North,0,4.0,4.0,65,0.00,,---,0.00,VWS V14.00,2013-09-12 20:07:00,
2013-09-12 13:13:00,76.3,63.7,29.68,NW,315,1.3,4.3,65,0.00,,---,0.00,VWS V14.00,2013-09-12 20:13:00,
2013-09-12 13:18:00,76.3,63.7,29.68,NNE,22,1.6,1.6,65,0.00,,---,0.00,VWS V14.00,2013-09-12 20:18:00,
2013-09-12 13:23:00,76.3,63.7,29.68,NNW,338,1.3,1.3,65,0.00,,---,0.00,VWS V14.00,2013-09-12 20:23:00,
2013-09-12 13:29:00,78.1,64.0,29.68,NNW,338,2.7,3.4,62,0.00,,---,0.00,VWS V14.00,2013-09-12 20:29:00,
2013-09-12 13:34:00,78.1,64.0,29.68,North,0,3.1,3.1,62,0.00,,---,0.00,VWS V14.00,2013-09-12 20:34:00,
2013-09-12 13:39:00,78.4,63.4,29.68,WNW,292,2.7,2.7,60,0.00,,---,0.00,VWS V14.00,2013-09-12 20:39:00,
2013-09-12 13:44:00,78.4,63.4,29.68,North,0,3.6,3.8,60,0.00,,---,0.00,VWS V14.00,2013-09-12 20:44:00,
2013-09-12 13:50:00,78.4,63.4,29.68,WNW,292,3.4,3.4,60,0.00,,---,0.00,VWS V14.00,2013-09-12 20:50:00,
2013-09-12 13:55:00,79.0,63.4,29.68,North,0,2.5,3.8,59,0.00,,---,0.00,VWS V14.00,2013-09-12 20:55:00,
2013-09-12 14:01:00,79.3,63.8,29.68,NNW,338,1.6,4.0,59,0.00,,---,0.00,VWS V14.00,2013-09-12 21:01:00,
2013-09-12 14:06:00,79.5,63.5,29.68,North,0,2.2,2.9,58,0.00,,---,0.00,VWS V14.00,2013-09-12 21:06:00,
2013-09-12 14:12:00,79.7,63.1,29.68,WNW,292,2.0,2.2,57,0.00,,---,0.00,VWS V14.00,2013-09-12 21:12:00,
2013-09-12 14:17:00,79.7,63.1,29.68,North,0,2.5,2.5,57,0.00,,---,0.00,VWS V14.00,2013-09-12 21:17:00,
2013-09-12 14:23:00,79.9,62.8,29.68,ENE,68,2.7,2.9,56,0.00,,---,0.00,VWS V14.00,2013-09-12 21:23:00,
2013-09-12 14:28:00,79.9,62.3,29.68,North,0,2.9,2.9,55,0.00,,---,0.00,VWS V14.00,2013-09-12 21:28:00,
2013-09-12 14:33:00,79.5,62.0,29.68,NNE,22,1.3,1.3,55,0.00,,---,0.00,VWS V14.00,2013-09-12 21:33:00,
2013-09-12 14:38:00,79.7,62.1,29.65,WNW,292,2.0,5.6,55,0.00,,---,0.00,VWS V14.00,2013-09-12 21:38:00,
2013-09-12 14:43:00,79.7,62.1,29.65,North,0,2.5,2.7,55,0.00,,---,0.00,VWS V14.00,2013-09-12 21:43:00,
2013-09-12 14:48:00,79.9,62.3,29.65,North,0,1.3,1.3,55,0.00,,---,0.00,VWS V14.00,2013-09-12 21:48:00,
2013-09-12 14:53:00,80.2,62.6,29.65,NNE,22,1.6,1.6,55,0.00,,---,0.00,VWS V14.00,2013-09-12 21:53:00,
2013-09-12 14:59:00,80.1,61.9,29.65,WNW,292,2.9,2.9,54,0.00,,---,0.00,VWS V14.00,2013-09-12 21:59:00,
2013-09-12 15:04:00,79.7,61.1,29.65,SE,135,2.0,2.0,53,0.00,,---,0.00,VWS V14.00,2013-09-12 22:04:00,
2013-09-12 15:09:00,79.5,60.9,29.65,North,0,2.0,2.0,53,0.00,,---,0.00,VWS V14.00,2013-09-12 22:09:00,
2013-09-12 15:15:00,79.9,61.2,29.65,NNW,338,1.6,1.6,53,0.00,,---,0.00,VWS V14.00,2013-09-12 22:15:00,
2013-09-12 15:20:00,80.1,61.4,29.65,East,90,3.8,3.8,53,0.00,,---,0.00,VWS V14.00,2013-09-12 22:20:00,
2013-09-12 15:25:00,80.2,61.6,29.65,NW,315,1.3,3.1,53,0.00,,---,0.00,VWS V14.00,2013-09-12 22:25:00,
2013-09-12 15:30:00,79.9,60.7,29.65,West,270,2.5,2.5,52,0.00,,---,0.00,VWS V14.00,2013-09-12 22:30:00,
2013-09-12 15:35:00,79.9,60.7,29.65,ESE,112,2.7,2.7,52,0.00,,---,0.00,VWS V14.00,2013-09-12 22:35:00,
2013-09-12 15:40:00,79.7,60.5,29.65,NW,315,3.4,3.4,52,0.00,,---,0.00,VWS V14.00,2013-09-12 22:40:00,
2013-09-12 15:46:00,80.1,61.4,29.65,NNE,22,1.3,3.1,53,0.00,,---,0.00,VWS V14.00,2013-09-12 22:46:00,
2013-09-12 15:51:00,80.1,61.4,29.65,NW,315,3.8,4.3,53,0.00,,---,0.00,VWS V14.00,2013-09-12 22:51:00,
2013-09-12 15:57:00,79.7,60.5,29.65,East,90,2.0,3.8,52,0.00,,---,0.00,VWS V14.00,2013-09-12 22:57:00,
2013-09-12 16:03:00,79.2,60.0,29.65,NNE,22,1.6,3.4,52,0.00,,---,0.00,VWS V14.00,2013-09-12 23:03:00,
2013-09-12 16:08:00,79.0,59.9,29.65,ESE,112,1.6,2.2,52,0.00,,---,0.00,VWS V14.00,2013-09-12 23:08:00,
2013-09-12 16:14:00,79.2,60.0,29.65,ESE,112,3.6,3.6,52,0.00,,---,0.00,VWS V14.00,2013-09-12 23:14:00,
2013-09-12 16:19:00,79.2,60.0,29.65,East,90,3.4,3.4,52,0.00,,---,0.00,VWS V14.00,2013-09-12 23:19:00,
2013-09-12 16:25:00,78.6,59.5,29.62,SSE,158,3.6,6.3,52,0.00,,---,0.00,VWS V14.00,2013-09-12 23:25:00,
2013-09-12 16:30:00,78.4,59.4,29.62,SSE,158,5.6,5.6,52,0.00,,---,0.00,VWS V14.00,2013-09-12 23:30:00,
2013-09-12 16:36:00,78.1,59.6,29.62,ENE,68,1.3,2.2,53,0.00,,---,0.00,VWS V14.00,2013-09-12 23:36:00,
2013-09-12 16:41:00,78.6,60.1,29.62,WNW,292,1.1,1.1,53,0.00,,---,0.00,VWS V14.00,2013-09-12 23:41:00,
2013-09-12 16:46:00,79.0,60.4,29.62,North,0,1.6,2.0,53,0.00,,---,0.00,VWS V14.00,2013-09-12 23:46:00,
2013-09-12 16:52:00,79.3,60.7,29.62,NNW,338,2.7,2.7,53,0.00,,---,0.00,VWS V14.00,2013-09-12 23:52:00,
2013-09-12 16:58:00,79.3,60.7,29.62,NNE,22,3.4,3.4,53,0.00,,---,0.00,VWS V14.00,2013-09-12 23:58:00,
2013-09-12 17:03:00,79.5,60.4,29.62,NE,45,1.3,1.6,52,0.00,,---,0.00,VWS V14.00,2013-09-13 00:03:00,
2013-09-12 17:08:00,79.5,60.4,29.62,NW,315,1.6,2.9,52,0.00,,---,0.00,VWS V14.00,2013-09-13 00:08:00,
2013-09-12 17:13:00,79.3,60.2,29.62,NE,45,2.7,2.7,52,0.00,,---,0.00,VWS V14.00,2013-09-13 00:13:00,
2013-09-12 17:18:00,79.3,60.2,29.62,NE,45,2.7,2.7,52,0.00,,---,0.00,VWS V14.00,2013-09-13 00:18:00,
2013-09-12 17:23:00,79.3,59.7,29.62,NNE,22,1.3,1.3,51,0.00,,---,0.00,VWS V14.00,2013-09-13 00:23:00,
2013-09-12 17:29:00,79.3,59.7,29.62,NNW,338,2.9,2.9,51,0.00,,---,0.00,VWS V14.00,2013-09-13 00:29:00,
2013-09-12 17:34:00,79.0,59.3,29.62,NNW,338,3.8,3.8,51,0.00,,---,0.00,VWS V14.00,2013-09-13 00:34:00,
2013-09-12 17:40:00,79.0,59.3,29.62,WNW,292,2.7,2.7,51,0.00,,---,0.00,VWS V14.00,2013-09-13 00:40:00,
2013-09-12 17:45:00,78.4,58.8,29.62,WNW,292,2.9,6.3,51,0.00,,---,0.00,VWS V14.00,2013-09-13 00:45:00,
2013-09-12 17:50:00,77.9,58.3,29.62,WNW,292,3.4,3.4,51,0.00,,---,0.00,VWS V14.00,2013-09-13 00:50:00,
2013-09-12 17:56:00,77.5,58.0,29.62,WNW,292,3.1,4.3,51,0.00,,---,0.00,VWS V14.00,2013-09-13 00:56:00,
2013-09-12 18:01:00,77.5,58.0,29.62,NW,315,2.5,6.5,51,0.00,,---,0.00,VWS V14.00,2013-09-13 01:01:00,
2013-09-12 18:06:00,77.5,58.0,29.62,NNW,338,7.6,7.6,51,0.00,,---,0.00,VWS V14.00,2013-09-13 01:06:00,
2013-09-12 18:11:00,77.5,58.0,29.62,WNW,292,5.8,8.1,51,0.00,,---,0.00,VWS V14.00,2013-09-13 01:11:00,
2013-09-12 18:16:00,77.5,58.0,29.62,WNW,292,4.3,5.4,51,0.00,,---,0.00,VWS V14.00,2013-09-13 01:16:00,
2013-09-12 18:22:00,73.8,55.6,29.65,NW,315,6.5,6.5,53,0.00,,---,0.00,VWS V14.00,2013-09-13 01:22:00,
2013-09-12 18:27:00,72.5,54.9,29.65,NW,315,7.8,7.8,54,0.00,,---,0.00,VWS V14.00,2013-09-13 01:27:00,
2013-09-12 18:32:00,71.6,54.1,29.65,NNW,338,5.6,5.6,54,0.00,,---,0.00,VWS V14.00,2013-09-13 01:32:00,
2013-09-12 18:38:00,70.9,54.4,29.65,NNW,338,8.5,8.5,56,0.00,,---,0.00,VWS V14.00,2013-09-13 01:38:00,
2013-09-12 18:44:00,70.0,53.6,29.65,NNW,338,8.5,8.5,56,0.00,,---,0.00,VWS V14.00,2013-09-13 01:44:00,
2013-09-12 18:49:00,69.4,53.6,29.65,NNW,338,5.8,7.4,57,0.00,,---,0.00,VWS V14.00,2013-09-13 01:49:00,
2013-09-12 18:54:00,68.4,53.5,29.65,WNW,292,6.3,6.3,59,0.00,,---,0.00,VWS V14.00,2013-09-13 01:54:00,
2013-09-12 18:59:00,67.8,53.4,29.65,NW,315,3.4,4.3,60,0.00,,---,0.00,VWS V14.00,2013-09-13 01:59:00,
2013-09-12 19:04:00,67.3,53.4,29.65,WNW,292,3.4,7.6,61,0.00,,---,0.00,VWS V14.00,2013-09-13 02:04:00,
2013-09-12 19:09:00,67.1,53.7,29.65,NNW,338,3.8,7.8,62,0.00,,---,0.00,VWS V14.00,2013-09-13 02:09:00,
2013-09-12 19:14:00,67.1,53.7,29.65,NNW,338,2.9,6.3,62,0.00,,---,0.00,VWS V14.00,2013-09-13 02:14:00,
2013-09-12 19:20:00,67.1,54.5,29.65,NNW,338,3.8,5.4,64,0.00,,---,0.00,VWS V14.00,2013-09-13 02:20:00,
2013-09-12 19:25:00,66.9,54.4,29.65,WNW,292,4.0,4.0,64,0.00,,---,0.00,VWS V14.00,2013-09-13 02:25:00,
2013-09-12 19:31:00,66.9,54.4,29.65,NW,315,6.5,6.5,64,0.00,,---,0.00,VWS V14.00,2013-09-13 02:31:00,
2013-09-12 19:37:00,66.6,54.0,29.65,WNW,292,3.4,4.0,64,0.00,,---,0.00,VWS V14.00,2013-09-13 02:37:00,
2013-09-12 19:42:00,66.6,54.0,29.65,ENE,68,2.5,3.1,64,0.00,,---,0.00,VWS V14.00,2013-09-13 02:42:00,
2013-09-12 19:48:00,66.4,54.3,29.65,NW,315,1.1,4.3,65,0.00,,---,0.00,VWS V14.00,2013-09-13 02:48:00,
2013-09-12 19:53:00,66.2,54.5,29.65,SSW,202,2.2,2.2,66,0.00,,---,0.00,VWS V14.00,2013-09-13 02:53:00,
2013-09-12 19:58:00,66.0,54.3,29.65,West,270,2.0,2.7,66,0.00,,---,0.00,VWS V14.00,2013-09-13 02:58:00,
2013-09-12 20:03:00,66.0,54.8,29.65,NW,315,2.2,2.2,67,0.00,,---,0.00,VWS V14.00,2013-09-13 03:03:00,
2013-09-12 20:08:00,65.8,54.6,29.65,WNW,292,1.6,5.4,67,0.00,,---,0.00,VWS V14.00,2013-09-13 03:08:00,
2013-09-12 20:13:00,65.7,54.4,29.65,WNW,292,2.0,3.6,67,0.00,,---,0.00,VWS V14.00,2013-09-13 03:13:00,
2013-09-12 20:19:00,65.5,54.2,29.65,NNW,338,2.0,2.0,67,0.00,,---,0.00,VWS V14.00,2013-09-13 03:19:00,
2013-09-12 20:25:00,65.5,54.2,29.68,NW,315,1.6,2.5,67,0.00,,---,0.00,VWS V14.00,2013-09-13 03:25:00,
2013-09-12 20:30:00,65.5,54.2,29.68,NW,315,3.6,3.6,67,0.00,,---,0.00,VWS V14.00,2013-09-13 03:30:00,
2013-09-12 20:36:00,64.9,54.1,29.68,NNW,338,5.4,5.8,68,0.00,,---,0.00,VWS V14.00,2013-09-13 03:36:00,
2013-09-12 20:41:00,64.9,54.1,29.68,NW,315,1.3,1.6,68,0.00,,---,0.00,VWS V14.00,2013-09-13 03:41:00,
2013-09-12 20:46:00,64.8,54.0,29.68,NW,315,3.1,4.0,68,0.00,,---,0.00,VWS V14.00,2013-09-13 03:46:00,
2013-09-12 20:51:00,64.8,54.0,29.68,WNW,292,1.1,1.3,68,0.00,,---,0.00,VWS V14.00,2013-09-13 03:51:00,
2013-09-12 20:57:00,64.8,54.4,29.68,ESE,112,0.0,0.9,69,0.00,,---,0.00,VWS V14.00,2013-09-13 03:57:00,
2013-09-12 21:01:00,64.8,54.4,29.68,NW,315,2.0,2.0,69,0.00,,---,0.00,VWS V14.00,2013-09-13 04:01:00,
2013-09-12 21:02:00,64.8,54.4,29.68,WNW,292,1.6,2.0,69,0.00,,---,0.00,VWS V14.00,2013-09-13 04:02:00,
2013-09-12 21:04:00,64.8,54.4,29.68,SW,225,1.3,1.6,69,0.00,,---,0.00,VWS V14.00,2013-09-13 04:04:00,
2013-09-12 21:06:00,64.8,54.4,29.68,SSW,202,1.1,1.1,69,0.00,,---,0.00,VWS V14.00,2013-09-13 04:06:00,
2013-09-12 21:11:00,64.6,54.2,29.68,NW,315,1.6,1.6,69,0.00,,---,0.00,VWS V14.00,2013-09-13 04:11:00,
2013-09-12 21:17:00,64.4,54.4,29.68,NW,315,0.0,0.0,70,0.00,,---,0.00,VWS V14.00,2013-09-13 04:17:00,
2013-09-12 21:22:00,64.4,54.4,29.68,NW,315,1.6,2.5,70,0.00,,---,0.00,VWS V14.00,2013-09-13 04:22:00,
2013-09-12 21:27:00,64.4,54.4,29.68,WNW,292,2.5,2.5,70,0.00,,---,0.00,VWS V14.00,2013-09-13 04:27:00,
2013-09-12 21:33:00,64.4,54.4,29.68,NW,315,1.3,1.3,70,0.00,,---,0.00,VWS V14.00,2013-09-13 04:33:00,
2013-09-12 21:38:00,64.4,54.4,29.68,NW,315,2.2,2.2,70,0.00,,---,0.00,VWS V14.00,2013-09-13 04:38:00,
2013-09-12 21:43:00,64.4,54.4,29.68,WNW,292,1.1,2.2,70,0.00,,---,0.00,VWS V14.00,2013-09-13 04:43:00,
2013-09-12 21:48:00,64.4,54.8,29.68,NW,315,2.0,2.0,71,0.00,,---,0.00,VWS V14.00,2013-09-13 04:48:00,
2013-09-12 21:53:00,64.4,54.8,29.68,NNW,338,2.7,2.7,71,0.00,,---,0.00,VWS V14.00,2013-09-13 04:53:00,
2013-09-12 21:58:00,64.2,54.6,29.68,NW,315,1.6,2.5,71,0.00,,---,0.00,VWS V14.00,2013-09-13 04:58:00,
2013-09-12 22:04:00,64.0,54.5,29.68,WNW,292,1.3,2.9,71,0.00,,---,0.00,VWS V14.00,2013-09-13 05:04:00,
2013-09-12 22:09:00,63.9,54.3,29.68,NW,315,0.0,0.0,71,0.00,,---,0.00,VWS V14.00,2013-09-13 05:09:00,
2013-09-12 22:15:00,63.9,54.3,29.68,NW,315,2.2,2.2,71,0.00,,---,0.00,VWS V14.00,2013-09-13 05:15:00,
2013-09-12 22:20:00,63.7,54.1,29.68,NW,315,0.0,0.0,71,0.00,,---,0.00,VWS V14.00,2013-09-13 05:20:00,
2013-09-12 22:25:00,63.5,54.3,29.68,NW,315,2.5,2.5,72,0.00,,---,0.00,VWS V14.00,2013-09-13 05:25:00,
2013-09-12 22:30:00,63.5,54.3,29.68,WNW,292,0.0,0.0,72,0.00,,---,0.00,VWS V14.00,2013-09-13 05:30:00,
2013-09-12 22:36:00,63.5,54.3,29.68,WNW,292,0.0,0.0,72,0.00,,---,0.00,VWS V14.00,2013-09-13 05:36:00,
2013-09-12 22:41:00,63.3,54.2,29.68,WNW,292,0.0,0.0,72,0.00,,---,0.00,VWS V14.00,2013-09-13 05:41:00,
2013-09-12 22:46:00,63.3,54.2,29.68,WNW,292,0.0,0.0,72,0.00,,---,0.00,VWS V14.00,2013-09-13 05:46:00,
2013-09-12 22:52:00,63.3,54.2,29.68,SW,225,0.0,0.0,72,0.00,,---,0.00,VWS V14.00,2013-09-13 05:52:00,
2013-09-12 22:57:00,63.3,54.5,29.68,SSW,202,0.0,0.9,73,0.00,,---,0.00,VWS V14.00,2013-09-13 05:57:00,
2013-09-12 23:03:00,63.5,54.7,29.68,SW,225,0.0,0.0,73,0.00,,---,0.00,VWS V14.00,2013-09-13 06:03:00,
2013-09-12 23:09:00,63.5,54.7,29.68,ESE,112,0.0,0.0,73,0.00,,---,0.00,VWS V14.00,2013-09-13 06:09:00,
2013-09-12 23:14:00,63.1,54.3,29.68,NW,315,0.0,0.0,73,0.00,,---,0.00,VWS V14.00,2013-09-13 06:14:00,
2013-09-12 23:20:00,63.1,54.3,29.65,NW,315,0.0,0.0,73,0.00,,---,0.00,VWS V14.00,2013-09-13 06:20:00,
2013-09-12 23:25:00,63.0,54.2,29.65,NW,315,0.0,0.0,73,0.00,,---,0.00,VWS V14.00,2013-09-13 06:25:00,
2013-09-12 23:31:00,62.8,54.0,29.65,SSE,158,0.9,0.9,73,0.00,,---,0.00,VWS V14.00,2013-09-13 06:31:00,
2013-09-12 23:36:00,62.8,54.0,29.65,SSE,158,0.0,0.0,73,0.00,,---,0.00,VWS V14.00,2013-09-13 06:36:00,
2013-09-12 23:41:00,62.8,54.0,29.65,NNW,338,0.0,0.0,73,0.00,,---,0.00,VWS V14.00,2013-09-13 06:41:00,
2013-09-12 23:46:00,62.6,54.2,29.65,NW,315,1.1,1.1,74,0.00,,---,0.00,VWS V14.00,2013-09-13 06:46:00,
2013-09-12 23:52:00,62.6,54.2,29.65,NW,315,0.0,0.0,74,0.00,,---,0.00,VWS V14.00,2013-09-13 06:52:00,
2013-09-12 23:57:00,62.6,54.2,29.65,NW,315,0.0,0.0,74,0.00,,---,0.00,VWS V14.00,2013-09-13 06:57:00,